Meteo Giornale » Osservazioni meteo Stati Uniti (USA) » Chico
ore: 08:47 - Osservazioni Meteo Chico
Lat. 39° 48' N Lon. 121° 51' W Alt. 73 metri s.l.m.
20 °C
Sereno
Temp. 24 Ore
17 °C
33 °C
Sud-Est
9.3 Km/h
Dew point 10 °C
Umidità 52 %
Visibilità 10 Km
Il sole sorge alle ore 06:34
Il sole tramonta alle ore 19:40
| Data e Ora | Cielo e Fenomeni | T °C | DP °C | Um. % | Pres. hPa | Vis. km | Vento km/h | |
|---|---|---|---|---|---|---|---|---|
| Oggi h: 08:47 | Sereno | 20 | 10 | 52 | 1012 | 10 | SE 9.3 | |
| Oggi h: 08:15 | Sereno | 19 | 8 | 48 | 1012 | 10 | E/SE 7.4 | |
| Oggi h: 07:55 | Sereno | 18 | 7 | 48 | 1012 | 10 | N 5.5 | |
| Oggi h: 07:47 | Sereno | 18 | 7 | 48 | 1012 | 10 | SE 9.3 | |
| Oggi h: 07:15 | Sereno | 17 | 7 | 51 | 1011 | 10 | N 0 | |
| Oggi h: 06:55 | Sereno | 17 | 8 | 55 | 1011 | 10 | N 0 | |
| Oggi h: 06:47 | Sereno | 17 | 8 | 55 | 1011 | 10 | N 0 | |
| Oggi h: 06:35 | Sereno | 18 | 8 | 51 | 1011 | 10 | N 0 | |
| Oggi h: 06:15 | Sereno | 18 | 9 | 55 | 1011 | 10 | N 0 | |
| Oggi h: 05:35 | Sereno | 18 | 8 | 51 | 1010 | 10 | N 0 | |
| Oggi h: 05:15 | Sereno | 18 | 8 | 51 | 1010 | 10 | N 5.5 | |
| Oggi h: 04:55 | Poco Nuvoloso | 17 | 7 | 51 | 1010 | 10 | N 5.5 | |
| Oggi h: 04:35 | Molto Nuvoloso | 18 | 8 | 51 | 1010 | 10 | N 5.5 | |
| Oggi h: 04:15 | Molto Nuvoloso | 18 | 8 | 51 | 1010 | 10 | N 5.5 | |
| Oggi h: 03:55 | Poco Nuvoloso | 17 | 7 | 51 | 1010 | 10 | N/NO 9.3 | |
| Oggi h: 03:35 | Sereno | 17 | 6 | 48 | 1010 | 10 | NO 9.3 | |
| Oggi h: 03:15 | Sereno | 19 | 6 | 42 | 1010 | 10 | O/NO 13 | |
| Oggi h: 02:55 | Sereno | 22 | 4 | 30 | 1010 | 10 | N 0 | |
| Oggi h: 02:35 | Sereno | 22 | 4 | 30 | 1010 | 10 | N 0 | |
| Oggi h: 02:15 | Sereno | 22 | 5 | 32 | 1010 | 10 | N 0 | |
| Ieri h: 21:15 | Sereno | 27 | 8 | 30 | 1009 | 10 | E 7.4 | |
| Ieri h: 18:47 | Sereno | 30 | 8 | 25 | 1009 | 10 | SE 14.8 | |
| Ieri h: 17:50 | Sereno | 32 | 0 | 12 | 1009 | 10 | S/SE 14.8 | |
| Ieri h: 15:50 | Sereno | 33 | 7 | 19 | 1010 | 10 | S/SE 22.2 | |
| Ieri h: 14:50 | Sereno | 32 | 5 | 18 | 1011 | 10 | N 9.3 | |
| Ieri h: 13:50 | Sereno | 30 | 6 | 22 | 1011 | 10 | N 9.3 | |
| Ieri h: 12:50 | Sereno | 29 | 9 | 28 | 1012 | 10 | N 7.4 | |
| Ieri h: 10:50 | Sereno | 24 | 8 | 35 | 1013 | 10 | N 7.4 | |
| Ieri h: 09:55 | Sereno | 24 | 9 | 38 | 1013 | 10 | S 7.4 | |



